Time;durP1;ratioP1;P1;durP2;ratioP2;P2;SDS_P1;SDS_P2;PMS_P1;PMS_P2;Temp;Humidity;BMP_temperature;BMP_pressure;BME280_temperature;BME280_humidity;BME280_pressure;Samples;Min_cycle;Max_cycle;Signal;HPM_P1;HPM_P2
2021/08/06 00:01:30;;;;;;;;;;;22.10;49.90;;;;;;8299045;28;19917;-45
2021/08/06 00:05:31;;;;;;;;;;;22.10;49.90;;;;;;8299160;28;20315;-46
2021/08/06 00:09:34;;;;;;;;;;;22.10;49.90;;;;;;8297897;28;19917;-46
2021/08/06 00:13:35;;;;;;;;;;;22.10;49.90;;;;;;8298234;28;19937;-47
2021/08/06 00:17:35;;;;;;;;;;;22.10;49.90;;;;;;8298320;28;19953;-45
2021/08/06 00:21:36;;;;;;;;;;;22.10;49.90;;;;;;8298090;28;20016;-46
2021/08/06 00:25:36;;;;;;;;;;;22.10;49.90;;;;;;8298249;28;19913;-45
2021/08/06 00:29:37;;;;;;;;;;;22.10;49.90;;;;;;8298001;28;19918;-45
2021/08/06 00:33:37;;;;;;;;;;;22.10;49.90;;;;;;8297337;28;19929;-45
2021/08/06 00:37:37;;;;;;;;;;;22.10;49.90;;;;;;8297769;28;19919;-47
2021/08/06 00:41:38;;;;;;;;;;;22.10;49.90;;;;;;8298424;28;19940;-46
2021/08/06 00:45:38;;;;;;;;;;;22.10;49.90;;;;;;8297164;28;19917;-45
2021/08/06 00:49:39;;;;;;;;;;;22.10;50.00;;;;;;8299598;28;20019;-47
2021/08/06 00:53:40;;;;;;;;;;;22.10;49.90;;;;;;8296962;28;19979;-45
2021/08/06 00:57:41;;;;;;;;;;;22.10;49.90;;;;;;8297545;28;20318;-49
2021/08/06 01:01:44;;;;;;;;;;;22.10;49.90;;;;;;8297631;28;19926;-48
2021/08/06 01:05:48;;;;;;;;;;;22.00;49.90;;;;;;8296926;28;19917;-45
2021/08/06 01:09:54;;;;;;;;;;;22.10;49.90;;;;;;8297127;28;19924;-45
2021/08/06 01:13:56;;;;;;;;;;;22.00;49.90;;;;;;8297024;28;19925;-45
2021/08/06 01:17:59;;;;;;;;;;;22.00;49.90;;;;;;8279877;28;19917;-46
2021/08/06 01:22:14;;;;;;;;;;;22.10;50.00;;;;;;8279427;28;19951;-46
2021/08/06 01:26:15;;;;;;;;;;;22.00;49.90;;;;;;8296962;28;19918;-48
2021/08/06 01:30:16;;;;;;;;;;;22.00;49.90;;;;;;8296649;28;19932;-46
2021/08/06 01:34:16;;;;;;;;;;;22.00;49.90;;;;;;8297909;28;20370;-45
2021/08/06 01:38:17;;;;;;;;;;;22.00;49.90;;;;;;8296982;28;20034;-45
2021/08/06 01:42:42;;;;;;;;;;;22.00;49.90;;;;;;8296351;28;19925;-45
2021/08/06 01:46:50;;;;;;;;;;;22.00;49.90;;;;;;8296710;28;19918;-46
2021/08/06 01:50:50;;;;;;;;;;;22.00;50.00;;;;;;8296057;28;19971;-48
2021/08/06 01:54:52;;;;;;;;;;;22.00;49.90;;;;;;8297286;28;19914;-48
2021/08/06 01:58:54;;;;;;;;;;;22.00;50.00;;;;;;8296494;28;19924;-49
2021/08/06 02:02:54;;;;;;;;;;;22.00;50.00;;;;;;8298472;28;20365;-49
2021/08/06 02:06:55;;;;;;;;;;;22.00;50.00;;;;;;8302060;28;19929;-45
2021/08/06 02:10:55;;;;;;;;;;;22.00;50.00;;;;;;8302256;28;19925;-46
2021/08/06 02:14:56;;;;;;;;;;;22.00;50.00;;;;;;8302260;28;19922;-45
2021/08/06 02:18:57;;;;;;;;;;;22.00;50.00;;;;;;8301815;28;19917;-45
2021/08/06 02:22:58;;;;;;;;;;;22.00;50.00;;;;;;8301590;28;20374;-50
2021/08/06 02:26:59;;;;;;;;;;;21.90;50.00;;;;;;8301053;28;19917;-49
2021/08/06 02:31:00;;;;;;;;;;;21.90;50.00;;;;;;8302020;28;19922;-49
2021/08/06 02:35:01;;;;;;;;;;;21.90;50.00;;;;;;8301380;28;19924;-45
2021/08/06 02:39:04;;;;;;;;;;;21.90;50.00;;;;;;8300771;28;20084;-45
2021/08/06 02:43:05;;;;;;;;;;;21.90;50.00;;;;;;8301129;28;20398;-45
2021/08/06 02:47:06;;;;;;;;;;;21.90;50.00;;;;;;8312731;28;19917;-45
2021/08/06 02:51:06;;;;;;;;;;;21.90;50.00;;;;;;8300998;28;20028;-47
2021/08/06 02:55:07;;;;;;;;;;;21.90;50.10;;;;;;8300566;28;19925;-46
2021/08/06 02:59:07;;;;;;;;;;;21.90;50.10;;;;;;8300712;28;20113;-45
2021/08/06 03:03:08;;;;;;;;;;;21.90;50.10;;;;;;8300366;28;19975;-46
2021/08/06 03:07:08;;;;;;;;;;;21.90;50.20;;;;;;8300957;28;19930;-46
2021/08/06 03:11:09;;;;;;;;;;;21.90;50.10;;;;;;8300029;28;19949;-46
2021/08/06 03:15:10;;;;;;;;;;;21.90;50.10;;;;;;8298778;28;19918;-45
2021/08/06 03:19:10;;;;;;;;;;;21.90;50.10;;;;;;8300141;28;19914;-46
2021/08/06 03:23:10;;;;;;;;;;;21.90;50.10;;;;;;8300551;28;19948;-45
2021/08/06 03:27:11;;;;;;;;;;;21.90;50.10;;;;;;8299151;28;20035;-46
2021/08/06 03:31:11;;;;;;;;;;;21.90;50.20;;;;;;8299222;28;19925;-45
2021/08/06 03:35:13;;;;;;;;;;;21.90;50.20;;;;;;8299289;28;20013;-46
2021/08/06 03:39:32;;;;;;;;;;;21.90;50.20;;;;;;8318615;28;19924;-45
2021/08/06 03:43:33;;;;;;;;;;;21.80;50.70;;;;;;8328634;28;20302;-45
2021/08/06 03:47:34;;;;;;;;;;;21.80;50.10;;;;;;8306000;28;19917;-46
2021/08/06 03:51:34;;;;;;;;;;;21.90;50.30;;;;;;8298546;28;19925;-47
2021/08/06 03:55:35;;;;;;;;;;;21.80;50.20;;;;;;8298961;28;19921;-48
2021/08/06 03:59:35;;;;;;;;;;;21.80;50.20;;;;;;8299576;28;20155;-47
2021/08/06 04:03:35;;;;;;;;;;;21.80;50.20;;;;;;8280604;28;19922;-46
2021/08/06 04:07:42;;;;;;;;;;;21.80;50.30;;;;;;8298409;28;19925;-45
2021/08/06 04:11:43;;;;;;;;;;;21.80;50.30;;;;;;8297955;28;20366;-46
2021/08/06 04:15:45;;;;;;;;;;;21.80;50.80;;;;;;8297895;28;21295;-45
2021/08/06 04:19:45;;;;;;;;;;;21.80;50.30;;;;;;8298941;28;19929;-46
2021/08/06 04:23:46;;;;;;;;;;;21.80;50.30;;;;;;8297630;28;19917;-46
2021/08/06 04:27:46;;;;;;;;;;;21.80;50.30;;;;;;8298408;28;20012;-45
2021/08/06 04:31:47;;;;;;;;;;;21.80;50.30;;;;;;8298025;28;19921;-45
2021/08/06 04:35:47;;;;;;;;;;;21.80;50.30;;;;;;8297981;28;19917;-46
2021/08/06 04:39:48;;;;;;;;;;;21.80;50.30;;;;;;8297648;28;19917;-45
2021/08/06 04:43:49;;;;;;;;;;;21.80;50.30;;;;;;8297779;28;19980;-45
2021/08/06 04:47:50;;;;;;;;;;;21.80;50.40;;;;;;8297091;28;19918;-46
2021/08/06 04:51:51;;;;;;;;;;;21.80;50.40;;;;;;8323740;28;19932;-48
2021/08/06 04:55:51;;;;;;;;;;;21.80;50.30;;;;;;8298910;28;19924;-48
2021/08/06 04:59:52;;;;;;;;;;;21.80;50.40;;;;;;8297079;28;20378;-47
2021/08/06 05:03:52;;;;;;;;;;;21.80;50.40;;;;;;8297396;28;19917;-48
2021/08/06 05:07:53;;;;;;;;;;;21.70;50.30;;;;;;8297231;28;19921;-46
2021/08/06 05:11:54;;;;;;;;;;;21.80;50.40;;;;;;8297526;28;20387;-46
2021/08/06 05:15:55;;;;;;;;;;;21.80;50.40;;;;;;8297464;28;19963;-46
2021/08/06 05:19:55;;;;;;;;;;;21.80;50.50;;;;;;8297166;28;19925;-45
2021/08/06 05:23:55;;;;;;;;;;;21.70;50.40;;;;;;8296531;28;20457;-45
2021/08/06 05:27:56;;;;;;;;;;;21.80;50.40;;;;;;8298233;28;20383;-46
2021/08/06 05:31:56;;;;;;;;;;;21.70;50.40;;;;;;8296808;28;19932;-46
2021/08/06 05:35:57;;;;;;;;;;;21.70;50.40;;;;;;8296455;28;19917;-46
2021/08/06 05:39:57;;;;;;;;;;;21.70;50.40;;;;;;8302821;28;19920;-45
2021/08/06 05:43:58;;;;;;;;;;;21.80;50.50;;;;;;8303626;28;19924;-46
2021/08/06 05:47:59;;;;;;;;;;;21.70;50.50;;;;;;8302441;28;19925;-46
2021/08/06 05:51:59;;;;;;;;;;;21.70;50.50;;;;;;8302550;28;19933;-46
2021/08/06 05:56:00;;;;;;;;;;;21.70;50.40;;;;;;8302748;28;19987;-46
2021/08/06 06:00:00;;;;;;;;;;;21.70;50.40;;;;;;8302040;28;19932;-46
2021/08/06 06:04:01;;;;;;;;;;;21.70;50.50;;;;;;8303056;28;20354;-45
2021/08/06 06:08:01;;;;;;;;;;;21.80;50.50;;;;;;8302262;28;20232;-45
2021/08/06 06:12:02;;;;;;;;;;;21.80;50.50;;;;;;8301581;28;19933;-49
2021/08/06 06:16:02;;;;;;;;;;;21.80;50.50;;;;;;8301877;28;19971;-49
2021/08/06 06:20:04;;;;;;;;;;;21.80;50.50;;;;;;8302707;28;19925;-49
2021/08/06 06:24:05;;;;;;;;;;;21.70;50.50;;;;;;8301259;28;19945;-45
2021/08/06 06:28:05;;;;;;;;;;;21.80;50.50;;;;;;8301594;28;19924;-48
2021/08/06 06:32:06;;;;;;;;;;;21.80;50.50;;;;;;8301712;28;19976;-45
2021/08/06 06:36:06;;;;;;;;;;;21.80;50.50;;;;;;8301050;28;19957;-46
2021/08/06 06:40:07;;;;;;;;;;;21.80;50.50;;;;;;8301712;28;20337;-45
2021/08/06 06:44:08;;;;;;;;;;;21.80;50.50;;;;;;8301288;28;19925;-45
2021/08/06 06:48:09;;;;;;;;;;;21.80;50.60;;;;;;8299853;28;19952;-46
2021/08/06 06:52:09;;;;;;;;;;;21.80;50.50;;;;;;8300721;28;19929;-46
2021/08/06 06:56:10;;;;;;;;;;;21.80;50.50;;;;;;8301529;28;19957;-45
2021/08/06 07:00:11;;;;;;;;;;;21.80;50.50;;;;;;8300042;28;20345;-46
2021/08/06 07:04:11;;;;;;;;;;;21.80;50.50;;;;;;8300640;28;20094;-45
2021/08/06 07:08:12;;;;;;;;;;;21.80;50.50;;;;;;8300341;28;20283;-46
2021/08/06 07:12:12;;;;;;;;;;;21.80;50.50;;;;;;8300412;28;20424;-45
2021/08/06 07:16:12;;;;;;;;;;;21.90;50.50;;;;;;8300122;28;20339;-45
2021/08/06 07:20:14;;;;;;;;;;;21.90;50.50;;;;;;8300176;28;20067;-49
2021/08/06 07:24:15;;;;;;;;;;;21.90;50.60;;;;;;8299515;28;20000;-45
2021/08/06 07:28:15;;;;;;;;;;;21.80;50.50;;;;;;8300133;28;19918;-47
2021/08/06 07:32:16;;;;;;;;;;;21.90;50.60;;;;;;8300324;28;20000;-45
2021/08/06 07:36:16;;;;;;;;;;;21.90;50.60;;;;;;8299178;28;20016;-45
2021/08/06 07:40:17;;;;;;;;;;;21.90;50.60;;;;;;8299581;28;19918;-46
2021/08/06 07:44:17;;;;;;;;;;;21.90;50.60;;;;;;8299435;28;20000;-44
2021/08/06 07:48:18;;;;;;;;;;;21.90;50.50;;;;;;8299460;28;20355;-45
2021/08/06 07:52:18;;;;;;;;;;;21.90;50.60;;;;;;8298897;28;19929;-45
2021/08/06 07:56:19;;;;;;;;;;;21.90;50.60;;;;;;8298958;28;19971;-44
2021/08/06 08:00:20;;;;;;;;;;;21.90;51.10;;;;;;8298152;28;19917;-44
2021/08/06 08:04:21;;;;;;;;;;;21.90;50.60;;;;;;8299609;28;19917;-45
2021/08/06 08:08:22;;;;;;;;;;;21.90;50.50;;;;;;8298760;28;19928;-46
2021/08/06 08:12:22;;;;;;;;;;;21.90;50.50;;;;;;8298108;28;20024;-45
2021/08/06 08:16:23;;;;;;;;;;;21.90;50.50;;;;;;8298522;28;19918;-45
2021/08/06 08:20:23;;;;;;;;;;;21.90;50.50;;;;;;8298335;28;19925;-45
2021/08/06 08:24:24;;;;;;;;;;;21.90;50.50;;;;;;8298615;28;19924;-46
2021/08/06 08:28:25;;;;;;;;;;;22.00;50.60;;;;;;8298476;28;19922;-44
2021/08/06 08:32:26;;;;;;;;;;;22.00;50.60;;;;;;8298253;28;20378;-45
2021/08/06 08:36:27;;;;;;;;;;;22.00;50.50;;;;;;8297581;28;19967;-46
2021/08/06 08:40:28;;;;;;;;;;;22.00;50.50;;;;;;8298873;28;20004;-46
2021/08/06 08:44:38;;;;;;;;;;;22.00;50.50;;;;;;8297851;28;19984;-44
2021/08/06 08:48:39;;;;;;;;;;;22.00;50.50;;;;;;8297483;28;19924;-45
2021/08/06 08:52:39;;;;;;;;;;;22.00;50.50;;;;;;8297762;28;19925;-47
2021/08/06 08:56:40;;;;;;;;;;;22.10;50.50;;;;;;8297644;28;19960;-45
2021/08/06 09:00:41;;;;;;;;;;;22.00;50.40;;;;;;8297838;28;19917;-45
2021/08/06 09:04:44;;;;;;;;;;;22.10;50.50;;;;;;8297607;28;19925;-45
2021/08/06 09:08:44;;;;;;;;;;;22.10;50.40;;;;;;8297078;28;19929;-45
2021/08/06 09:12:45;;;;;;;;;;;22.10;50.40;;;;;;8300113;28;19925;-45
2021/08/06 09:16:55;;;;;;;;;;;22.10;50.50;;;;;;8304737;28;19917;-45
2021/08/06 09:20:55;;;;;;;;;;;22.20;50.50;;;;;;8303538;28;19918;-46
2021/08/06 09:24:56;;;;;;;;;;;22.20;50.40;;;;;;8304017;28;19942;-48
2021/08/06 09:28:58;;;;;;;;;;;22.20;50.40;;;;;;8303573;28;19987;-45
2021/08/06 09:32:58;;;;;;;;;;;22.20;50.30;;;;;;8303314;28;20449;-45
2021/08/06 09:37:07;;;;;;;;;;;22.20;50.30;;;;;;8303945;28;19979;-49
2021/08/06 09:41:14;;;;;;;;;;;22.20;50.20;;;;;;8303314;28;19968;-46
2021/08/06 09:45:15;;;;;;;;;;;22.20;50.20;;;;;;8303033;28;19917;-45
2021/08/06 09:49:18;;;;;;;;;;;22.20;50.20;;;;;;8303362;28;19917;-45
2021/08/06 09:53:23;;;;;;;;;;;22.30;50.30;;;;;;8303644;28;19984;-45
2021/08/06 09:57:24;;;;;;;;;;;22.30;50.30;;;;;;8302147;28;19917;-45
2021/08/06 10:01:24;;;;;;;;;;;22.30;50.20;;;;;;8302604;28;20059;-46
2021/08/06 10:05:26;;;;;;;;;;;22.30;50.20;;;;;;8302455;28;20300;-45
2021/08/06 10:09:27;;;;;;;;;;;22.30;50.20;;;;;;8301823;28;20323;-45
2021/08/06 10:13:27;;;;;;;;;;;22.40;50.10;;;;;;8303218;28;19926;-44
2021/08/06 10:17:28;;;;;;;;;;;22.40;50.10;;;;;;8302109;28;19918;-44
2021/08/06 10:21:29;;;;;;;;;;;22.40;50.10;;;;;;8301401;28;20436;-44
2021/08/06 10:25:30;;;;;;;;;;;22.40;50.10;;;;;;8301426;28;20020;-44
2021/08/06 10:29:30;;;;;;;;;;;22.40;50.00;;;;;;8302558;28;20008;-45
2021/08/06 10:33:31;;;;;;;;;;;22.40;50.00;;;;;;8301072;28;19925;-46
2021/08/06 10:37:47;;;;;;;;;;;22.50;50.00;;;;;;8301326;28;20000;-45
2021/08/06 10:41:49;;;;;;;;;;;22.50;49.90;;;;;;8300941;28;19917;-44
2021/08/06 10:45:51;;;;;;;;;;;22.50;49.90;;;;;;8301116;28;19918;-44
2021/08/06 10:50:10;;;;;;;;;;;22.50;50.40;;;;;;8301802;28;19922;-45
2021/08/06 10:54:25;;;;;;;;;;;22.50;49.80;;;;;;8300339;28;20425;-44
2021/08/06 10:58:44;;;;;;;;;;;22.50;49.80;;;;;;8301211;28;19925;-46
2021/08/06 11:02:44;;;;;;;;;;;22.50;49.90;;;;;;8300257;28;19921;-44
2021/08/06 11:06:47;;;;;;;;;;;22.60;49.90;;;;;;8300726;28;19976;-46
2021/08/06 11:10:49;;;;;;;;;;;22.60;49.90;;;;;;8300975;28;19931;-46
2021/08/06 11:14:50;;;;;;;;;;;22.60;49.80;;;;;;8299887;28;20386;-43
2021/08/06 11:18:50;;;;;;;;;;;22.60;49.80;;;;;;8300203;28;19971;-45
2021/08/06 11:22:51;;;;;;;;;;;22.70;49.80;;;;;;8299934;28;19971;-43
2021/08/06 11:26:52;;;;;;;;;;;22.70;49.70;;;;;;8300289;28;20426;-45
2021/08/06 11:30:53;;;;;;;;;;;22.70;49.70;;;;;;8299652;28;19926;-46
2021/08/06 11:34:53;;;;;;;;;;;22.70;49.70;;;;;;8298974;28;20001;-45
2021/08/06 11:38:57;;;;;;;;;;;22.70;49.60;;;;;;8299127;28;20008;-44
2021/08/06 11:42:58;;;;;;;;;;;22.70;49.60;;;;;;8299600;28;19976;-45
2021/08/06 11:46:58;;;;;;;;;;;22.80;49.60;;;;;;8299643;28;19918;-45
2021/08/06 11:51:05;;;;;;;;;;;22.80;49.50;;;;;;8298841;28;19933;-45
2021/08/06 11:55:06;;;;;;;;;;;22.80;49.50;;;;;;8306127;28;19918;-45
2021/08/06 11:59:07;;;;;;;;;;;22.80;49.50;;;;;;8298922;28;20383;-44
2021/08/06 12:03:09;;;;;;;;;;;22.90;49.40;;;;;;8299108;28;19957;-45
2021/08/06 12:07:10;;;;;;;;;;;22.90;49.40;;;;;;8298903;28;20012;-45
2021/08/06 12:11:12;;;;;;;;;;;22.90;49.40;;;;;;8298461;28;19926;-45
2021/08/06 12:15:25;;;;;;;;;;;22.90;49.40;;;;;;8298051;28;19918;-46
2021/08/06 12:19:26;;;;;;;;;;;22.90;49.40;;;;;;8298798;28;20453;-45
2021/08/06 12:23:27;;;;;;;;;;;22.90;49.30;;;;;;8299236;28;19921;-45
2021/08/06 12:27:28;;;;;;;;;;;23.00;49.40;;;;;;8297723;28;19927;-44
2021/08/06 12:31:29;;;;;;;;;;;23.00;49.30;;;;;;8298046;28;19933;-44
2021/08/06 12:35:29;;;;;;;;;;;23.00;49.20;;;;;;8298210;28;20023;-46
2021/08/06 12:39:31;;;;;;;;;;;23.00;49.20;;;;;;8298117;28;19965;-44
2021/08/06 12:43:32;;;;;;;;;;;23.00;49.10;;;;;;8297836;28;20012;-44
2021/08/06 12:47:44;;;;;;;;;;;23.00;49.10;;;;;;8297759;28;19972;-46
2021/08/06 12:51:55;;;;;;;;;;;23.10;49.10;;;;;;8297507;28;20439;-45
2021/08/06 12:56:04;;;;;;;;;;;23.10;49.10;;;;;;8299483;28;19925;-46
2021/08/06 13:00:12;;;;;;;;;;;23.10;49.10;;;;;;8298973;28;19917;-46
2021/08/06 13:04:13;;;;;;;;;;;23.10;49.00;;;;;;8297566;28;20359;-45
2021/08/06 13:08:21;;;;;;;;;;;23.10;49.10;;;;;;8297469;28;20008;-45
2021/08/06 13:12:21;;;;;;;;;;;23.10;49.10;;;;;;8296856;28;20444;-46
2021/08/06 13:16:23;;;;;;;;;;;23.10;49.00;;;;;;8298282;28;19917;-46
2021/08/06 13:20:23;;;;;;;;;;;23.10;49.00;;;;;;8297155;28;19917;-46
2021/08/06 13:24:24;;;;;;;;;;;23.20;49.00;;;;;;8296625;28;19917;-45
2021/08/06 13:28:25;;;;;;;;;;;23.20;49.00;;;;;;8297237;28;19980;-45
2021/08/06 13:32:26;;;;;;;;;;;23.20;49.00;;;;;;8296863;28;20417;-46
2021/08/06 13:36:26;;;;;;;;;;;23.20;48.90;;;;;;8297492;28;19945;-45
2021/08/06 13:40:27;;;;;;;;;;;23.20;48.90;;;;;;8296896;28;20020;-46
2021/08/06 13:44:28;;;;;;;;;;;23.20;49.00;;;;;;8296861;28;19953;-45
2021/08/06 13:48:28;;;;;;;;;;;23.20;48.90;;;;;;8296335;28;19928;-46
2021/08/06 13:52:29;;;;;;;;;;;23.30;48.90;;;;;;8297365;28;19972;-47
2021/08/06 13:56:31;;;;;;;;;;;23.20;48.80;;;;;;8296530;28;19917;-46
2021/08/06 14:00:31;;;;;;;;;;;23.30;48.80;;;;;;8300911;28;19966;-45
2021/08/06 14:04:32;;;;;;;;;;;23.30;48.80;;;;;;8319196;28;20413;-46
2021/08/06 14:08:32;;;;;;;;;;;23.30;48.70;;;;;;8302784;28;19921;-45
2021/08/06 14:12:33;;;;;;;;;;;23.30;48.70;;;;;;8284462;28;19926;-47
2021/08/06 14:16:33;;;;;;;;;;;23.30;48.60;;;;;;8302314;28;20401;-46
2021/08/06 14:20:34;;;;;;;;;;;23.30;48.70;;;;;;8302207;28;19980;-46
2021/08/06 14:24:36;;;;;;;;;;;23.30;48.70;;;;;;8301463;28;19918;-45
2021/08/06 14:28:37;;;;;;;;;;;23.30;49.10;;;;;;8302802;28;20338;-46
2021/08/06 14:32:37;;;;;;;;;;;23.30;48.70;;;;;;8301593;28;19953;-45
2021/08/06 14:36:37;;;;;;;;;;;23.30;48.70;;;;;;8300967;28;19949;-45
2021/08/06 14:40:38;;;;;;;;;;;23.40;48.70;;;;;;8301418;28;20343;-46
2021/08/06 14:44:39;;;;;;;;;;;23.40;48.70;;;;;;8302193;28;19917;-46
2021/08/06 14:48:39;;;;;;;;;;;23.40;48.60;;;;;;8300834;28;19924;-45
2021/08/06 14:52:39;;;;;;;;;;;23.40;48.60;;;;;;8301377;28;19926;-44
2021/08/06 14:56:40;;;;;;;;;;;23.40;48.60;;;;;;8300994;28;19917;-46
2021/08/06 15:00:41;;;;;;;;;;;23.40;48.60;;;;;;8300333;28;19923;-46
2021/08/06 15:04:41;;;;;;;;;;;23.40;48.60;;;;;;8301360;28;19917;-45
2021/08/06 15:08:41;;;;;;;;;;;23.40;48.60;;;;;;8300025;28;20075;-47
2021/08/06 15:12:42;;;;;;;;;;;23.40;48.70;;;;;;8299396;28;20346;-47
2021/08/06 15:16:42;;;;;;;;;;;23.40;48.60;;;;;;8300470;28;19940;-46
2021/08/06 15:20:43;;;;;;;;;;;23.40;48.60;;;;;;8300599;28;19918;-45
2021/08/06 15:24:45;;;;;;;;;;;23.40;48.50;;;;;;8300182;28;20333;-46
2021/08/06 15:28:46;;;;;;;;;;;23.40;49.10;;;;;;8300071;28;19924;-48
2021/08/06 15:32:46;;;;;;;;;;;23.40;48.60;;;;;;8299112;28;19925;-46
2021/08/06 15:36:47;;;;;;;;;;;23.40;48.60;;;;;;8300382;28;19925;-45
2021/08/06 15:40:47;;;;;;;;;;;23.40;48.60;;;;;;8299649;28;19922;-45
2021/08/06 15:44:48;;;;;;;;;;;23.40;48.60;;;;;;8298911;28;19956;-45
2021/08/06 15:48:48;;;;;;;;;;;23.40;48.60;;;;;;8299053;28;19922;-46
2021/08/06 15:52:51;;;;;;;;;;;23.40;48.60;;;;;;8301456;28;19926;-47
2021/08/06 15:56:51;;;;;;;;;;;23.40;48.50;;;;;;8331951;28;19917;-45
2021/08/06 16:00:52;;;;;;;;;;;23.40;48.60;;;;;;8332137;28;20392;-46
2021/08/06 16:04:52;;;;;;;;;;;23.40;48.60;;;;;;8331443;28;19971;-46
2021/08/06 16:08:53;;;;;;;;;;;23.40;48.60;;;;;;8330832;28;19932;-45
2021/08/06 16:12:53;;;;;;;;;;;23.40;48.60;;;;;;8331841;28;19925;-45
2021/08/06 16:16:53;;;;;;;;;;;23.40;48.70;;;;;;8331345;28;19917;-45
2021/08/06 16:20:54;;;;;;;;;;;23.40;48.60;;;;;;8330250;28;19925;-45
2021/08/06 16:24:55;;;;;;;;;;;23.40;48.60;;;;;;8331079;28;19925;-45
2021/08/06 16:28:55;;;;;;;;;;;23.40;48.60;;;;;;8331733;28;20370;-45
2021/08/06 16:32:56;;;;;;;;;;;23.40;48.70;;;;;;8330212;28;19929;-44
2021/08/06 16:36:58;;;;;;;;;;;23.40;48.70;;;;;;8330827;28;19917;-44
2021/08/06 16:40:58;;;;;;;;;;;23.40;48.70;;;;;;8330511;28;19993;-46
2021/08/06 16:44:58;;;;;;;;;;;23.40;48.70;;;;;;8329978;28;20004;-45
2021/08/06 16:48:59;;;;;;;;;;;23.40;48.70;;;;;;8331008;28;20378;-45
2021/08/06 16:53:00;;;;;;;;;;;23.40;48.70;;;;;;8330280;28;19925;-45
2021/08/06 16:57:01;;;;;;;;;;;23.40;48.60;;;;;;8329736;28;19917;-44
2021/08/06 17:01:01;;;;;;;;;;;23.40;48.70;;;;;;8330323;28;19924;-44
2021/08/06 17:05:04;;;;;;;;;;;23.40;48.60;;;;;;8330901;28;19917;-45
2021/08/06 17:09:04;;;;;;;;;;;23.40;48.60;;;;;;8329470;28;19921;-45
2021/08/06 17:13:05;;;;;;;;;;;23.40;48.60;;;;;;8330255;28;19926;-46
2021/08/06 17:17:06;;;;;;;;;;;23.40;48.60;;;;;;8330153;28;20294;-45
2021/08/06 17:21:06;;;;;;;;;;;23.40;48.60;;;;;;8329372;28;19923;-45
2021/08/06 17:25:07;;;;;;;;;;;23.40;48.60;;;;;;8330488;28;20369;-46
2021/08/06 17:29:07;;;;;;;;;;;23.40;48.60;;;;;;8329860;28;20029;-46
2021/08/06 17:33:08;;;;;;;;;;;23.40;48.60;;;;;;8330505;28;19935;-45
2021/08/06 17:37:09;;;;;;;;;;;23.40;48.70;;;;;;8335981;28;20003;-45
2021/08/06 17:41:09;;;;;;;;;;;23.40;48.60;;;;;;8336752;28;19917;-45
2021/08/06 17:45:10;;;;;;;;;;;23.30;48.60;;;;;;8335298;28;19917;-46
2021/08/06 17:49:11;;;;;;;;;;;23.40;48.60;;;;;;8335894;28;20400;-46
2021/08/06 17:53:11;;;;;;;;;;;23.40;48.60;;;;;;8335502;28;19932;-47
2021/08/06 17:57:13;;;;;;;;;;;23.40;48.60;;;;;;8335640;28;20008;-45
2021/08/06 18:01:14;;;;;;;;;;;23.40;48.60;;;;;;8335463;28;19917;-49
2021/08/06 18:05:15;;;;;;;;;;;23.30;48.60;;;;;;8335474;28;19924;-46
2021/08/06 18:09:15;;;;;;;;;;;23.40;48.60;;;;;;8334501;28;19921;-46
2021/08/06 18:13:16;;;;;;;;;;;23.30;48.60;;;;;;8335163;28;19962;-46
2021/08/06 18:17:16;;;;;;;;;;;23.30;48.60;;;;;;8335562;28;20457;-47
2021/08/06 18:21:16;;;;;;;;;;;23.30;48.60;;;;;;8334213;28;19917;-44
2021/08/06 18:25:18;;;;;;;;;;;23.30;48.60;;;;;;8334430;28;19922;-45
2021/08/06 18:29:20;;;;;;;;;;;23.30;48.60;;;;;;8334381;28;19918;-45
2021/08/06 18:33:21;;;;;;;;;;;23.30;48.60;;;;;;8334629;28;19964;-45
2021/08/06 18:37:22;;;;;;;;;;;23.30;48.60;;;;;;8334469;28;19941;-45
2021/08/06 18:41:22;;;;;;;;;;;23.30;48.60;;;;;;8333951;28;20401;-45
2021/08/06 18:45:23;;;;;;;;;;;23.30;48.60;;;;;;8333337;28;19962;-45
2021/08/06 18:49:25;;;;;;;;;;;23.30;48.70;;;;;;8334573;28;19913;-46
2021/08/06 18:53:25;;;;;;;;;;;23.30;48.70;;;;;;8334299;28;19974;-45
2021/08/06 18:57:26;;;;;;;;;;;23.30;48.70;;;;;;8332982;28;20039;-47
2021/08/06 19:01:26;;;;;;;;;;;23.30;48.70;;;;;;8333570;28;20351;-45
2021/08/06 19:05:27;;;;;;;;;;;23.30;48.70;;;;;;8333243;28;20386;-48
2021/08/06 19:09:27;;;;;;;;;;;23.30;48.80;;;;;;8333264;28;19974;-45
2021/08/06 19:13:29;;;;;;;;;;;23.30;48.80;;;;;;8332925;28;20444;-46
2021/08/06 19:17:30;;;;;;;;;;;23.30;48.80;;;;;;8332847;28;20011;-44
2021/08/06 19:21:30;;;;;;;;;;;23.30;48.90;;;;;;8332215;28;20286;-45
2021/08/06 19:25:34;;;;;;;;;;;23.20;48.80;;;;;;8333207;28;19997;-44
2021/08/06 19:29:38;;;;;;;;;;;23.20;48.80;;;;;;8332466;28;19923;-45
2021/08/06 19:33:40;;;;;;;;;;;23.20;48.90;;;;;;8332052;28;20051;-45
2021/08/06 19:37:40;;;;;;;;;;;23.20;48.80;;;;;;8332301;28;19947;-45
2021/08/06 19:41:41;;;;;;;;;;;23.20;48.90;;;;;;8332492;28;19918;-45
2021/08/06 19:45:41;;;;;;;;;;;23.20;48.80;;;;;;8332410;28;19917;-46
2021/08/06 19:49:42;;;;;;;;;;;23.20;48.80;;;;;;8332148;28;19917;-44
2021/08/06 19:53:43;;;;;;;;;;;23.20;48.90;;;;;;8331329;28;19925;-45
2021/08/06 19:57:44;;;;;;;;;;;23.20;48.90;;;;;;8331348;28;20421;-45
2021/08/06 20:01:44;;;;;;;;;;;23.20;48.90;;;;;;8332221;28;19917;-44
2021/08/06 20:05:45;;;;;;;;;;;23.20;48.90;;;;;;8330815;28;19921;-45
2021/08/06 20:09:45;;;;;;;;;;;23.20;48.90;;;;;;8331192;28;19992;-44
2021/08/06 20:13:46;;;;;;;;;;;23.20;48.90;;;;;;8331218;28;19925;-44
2021/08/06 20:17:46;;;;;;;;;;;23.20;48.90;;;;;;8331547;28;19924;-45
2021/08/06 20:21:47;;;;;;;;;;;23.20;48.90;;;;;;8298416;28;20368;-44
2021/08/06 20:25:47;;;;;;;;;;;23.20;48.90;;;;;;8298475;28;20306;-44
2021/08/06 20:29:48;;;;;;;;;;;23.20;48.80;;;;;;8297868;28;19942;-45
2021/08/06 20:33:49;;;;;;;;;;;23.20;48.90;;;;;;8298190;28;19932;-45
2021/08/06 20:37:49;;;;;;;;;;;23.20;48.90;;;;;;8281168;28;20409;-45
2021/08/06 20:41:50;;;;;;;;;;;23.20;48.90;;;;;;8297378;28;19917;-45
2021/08/06 20:45:50;;;;;;;;;;;23.10;48.80;;;;;;8298036;28;19964;-45
2021/08/06 20:49:51;;;;;;;;;;;23.20;48.90;;;;;;8297861;28;19917;-45
2021/08/06 20:53:51;;;;;;;;;;;23.10;48.80;;;;;;8297841;28;19928;-45
2021/08/06 20:57:52;;;;;;;;;;;23.10;48.80;;;;;;8297944;28;19953;-45
2021/08/06 21:01:52;;;;;;;;;;;23.10;48.80;;;;;;8297582;28;20462;-45
2021/08/06 21:05:52;;;;;;;;;;;23.10;48.80;;;;;;8296936;28;20389;-45
2021/08/06 21:09:53;;;;;;;;;;;23.10;48.80;;;;;;8302030;28;20386;-45
2021/08/06 21:13:54;;;;;;;;;;;23.10;48.90;;;;;;8304475;28;19972;-46
2021/08/06 21:17:54;;;;;;;;;;;23.10;49.40;;;;;;8303773;28;19917;-49
2021/08/06 21:21:55;;;;;;;;;;;23.10;48.80;;;;;;8303905;28;19976;-47
2021/08/06 21:25:56;;;;;;;;;;;23.10;48.80;;;;;;8303776;28;19918;-47
2021/08/06 21:29:56;;;;;;;;;;;23.10;48.80;;;;;;8303994;28;19917;-46
2021/08/06 21:33:57;;;;;;;;;;;23.10;48.80;;;;;;8303501;28;20445;-46
2021/08/06 21:37:57;;;;;;;;;;;23.10;49.40;;;;;;8303277;28;19922;-45
2021/08/06 21:41:58;;;;;;;;;;;23.10;48.80;;;;;;8302922;28;20325;-46
2021/08/06 21:45:58;;;;;;;;;;;23.10;48.90;;;;;;8303795;28;19918;-46
2021/08/06 21:49:59;;;;;;;;;;;23.00;48.80;;;;;;8303143;28;19925;-45
2021/08/06 21:53:59;;;;;;;;;;;23.00;48.80;;;;;;8302347;28;19925;-46
2021/08/06 21:58:00;;;;;;;;;;;23.00;48.80;;;;;;8302635;28;19963;-45
2021/08/06 22:02:00;;;;;;;;;;;23.00;48.80;;;;;;8313677;28;19925;-46
2021/08/06 22:06:01;;;;;;;;;;;23.00;48.80;;;;;;8302717;28;19921;-45
2021/08/06 22:10:02;;;;;;;;;;;23.00;48.80;;;;;;8326250;28;19917;-45
2021/08/06 22:14:03;;;;;;;;;;;23.00;48.80;;;;;;8335081;28;19975;-47
2021/08/06 22:18:03;;;;;;;;;;;23.00;48.80;;;;;;8334281;28;19924;-46
2021/08/06 22:22:04;;;;;;;;;;;23.00;48.80;;;;;;8335402;28;19952;-45
2021/08/06 22:26:05;;;;;;;;;;;23.00;48.80;;;;;;8334769;28;19971;-46
2021/08/06 22:30:05;;;;;;;;;;;23.00;48.80;;;;;;8334088;28;19978;-46
2021/08/06 22:34:06;;;;;;;;;;;22.90;48.70;;;;;;8334519;28;19948;-46
2021/08/06 22:38:06;;;;;;;;;;;22.90;48.70;;;;;;8335402;28;19917;-47
2021/08/06 22:42:07;;;;;;;;;;;22.90;48.80;;;;;;8333760;28;20255;-45
2021/08/06 22:46:07;;;;;;;;;;;22.90;48.80;;;;;;8334234;28;19921;-48
2021/08/06 22:50:09;;;;;;;;;;;22.90;48.80;;;;;;8333954;28;19927;-46
2021/08/06 22:54:09;;;;;;;;;;;22.90;48.80;;;;;;8333345;28;20684;-45
2021/08/06 22:58:10;;;;;;;;;;;22.90;48.80;;;;;;8334408;28;19913;-46
2021/08/06 23:02:13;;;;;;;;;;;22.90;48.80;;;;;;8333454;28;19918;-46
2021/08/06 23:06:14;;;;;;;;;;;22.90;48.80;;;;;;8332784;28;19921;-45
2021/08/06 23:10:14;;;;;;;;;;;22.90;48.80;;;;;;8333364;28;20370;-46
2021/08/06 23:14:15;;;;;;;;;;;22.90;48.80;;;;;;8333931;28;19921;-45
2021/08/06 23:18:15;;;;;;;;;;;22.90;48.90;;;;;;8332626;28;19917;-47
2021/08/06 23:22:16;;;;;;;;;;;22.90;48.80;;;;;;8332949;28;19917;-45